createdAt,value
2018-01-24T00:00:40.391Z,0
2018-01-24T00:01:40.990Z,0
2018-01-24T00:02:41.612Z,0
2018-01-24T00:03:42.196Z,0
2018-01-24T00:04:42.797Z,0
2018-01-24T00:05:43.421Z,0
2018-01-24T00:06:44.008Z,0
2018-01-24T00:07:44.603Z,0
2018-01-24T00:08:45.204Z,0
2018-01-24T00:09:45.811Z,0
2018-01-24T00:10:46.410Z,0
2018-01-24T00:11:47.018Z,0
2018-01-24T00:12:47.624Z,0
2018-01-24T00:13:48.223Z,0
2018-01-24T00:14:48.827Z,0
2018-01-24T00:15:49.426Z,0
2018-01-24T00:16:50.026Z,0
2018-01-24T00:17:50.633Z,0
2018-01-24T00:18:51.248Z,0
2018-01-24T00:19:51.854Z,0
2018-01-24T00:20:52.450Z,0
2018-01-24T00:21:53.055Z,0
2018-01-24T00:22:53.654Z,0
2018-01-24T00:23:54.255Z,0
2018-01-24T00:24:54.854Z,0
2018-01-24T00:25:55.470Z,0
2018-01-24T00:26:56.071Z,0
2018-01-24T00:27:56.665Z,0
2018-01-24T00:28:57.270Z,0
2018-01-24T00:29:57.874Z,0
2018-01-24T00:30:58.465Z,0
2018-01-24T00:31:59.061Z,0
2018-01-24T00:32:59.656Z,0
2018-01-24T00:34:00.261Z,0
2018-01-24T00:35:00.877Z,0
2018-01-24T00:36:01.483Z,0
2018-01-24T00:37:02.079Z,0
2018-01-24T00:38:02.677Z,0
2018-01-24T00:39:03.289Z,0
2018-01-24T00:40:03.902Z,0
2018-01-24T00:41:04.523Z,0
2018-01-24T00:42:05.122Z,0
2018-01-24T00:43:05.722Z,0
2018-01-24T00:44:06.330Z,0
2018-01-24T00:45:06.939Z,0
2018-01-24T00:46:07.559Z,0
2018-01-24T00:47:08.148Z,0
2018-01-24T00:48:08.756Z,0
2018-01-24T00:49:09.357Z,0
2018-01-24T00:50:09.972Z,0
2018-01-24T00:51:10.579Z,0
2018-01-24T00:52:11.191Z,0
2018-01-24T00:53:11.796Z,0
2018-01-24T00:54:12.402Z,0
2018-01-24T00:55:13.013Z,0
2018-01-24T00:56:13.624Z,0
2018-01-24T00:57:14.229Z,0
2018-01-24T00:58:14.831Z,0
2018-01-24T00:59:15.434Z,0
2018-01-24T01:00:16.037Z,0
2018-01-24T01:01:16.662Z,0
2018-01-24T01:02:17.290Z,0
2018-01-24T01:03:17.900Z,0
2018-01-24T01:04:18.493Z,0
2018-01-24T01:05:19.102Z,0
2018-01-24T01:06:19.707Z,0
2018-01-24T01:07:20.315Z,0
2018-01-24T01:08:20.920Z,0
2018-01-24T01:09:21.519Z,0
2018-01-24T01:10:22.137Z,0
2018-01-24T01:11:22.738Z,0
2018-01-24T01:12:23.340Z,0
2018-01-24T01:13:23.935Z,0
2018-01-24T01:14:24.549Z,0
2018-01-24T01:15:25.141Z,0
2018-01-24T01:16:25.754Z,0
2018-01-24T01:17:26.357Z,0
2018-01-24T01:18:26.957Z,0
2018-01-24T01:19:27.562Z,0
2018-01-24T01:20:28.212Z,0
2018-01-24T01:21:28.788Z,0
2018-01-24T01:22:29.389Z,0
2018-01-24T01:23:30.007Z,0
2018-01-24T01:24:30.597Z,0
2018-01-24T01:25:31.203Z,0
2018-01-24T01:26:31.797Z,0
2018-01-24T01:27:32.386Z,0
2018-01-24T01:28:32.991Z,0
2018-01-24T01:29:33.601Z,0
2018-01-24T01:30:34.210Z,0
2018-01-24T01:31:34.830Z,0
2018-01-24T01:32:35.419Z,0
2018-01-24T01:33:36.043Z,0
2018-01-24T01:34:36.636Z,0
2018-01-24T01:35:37.252Z,0
2018-01-24T01:36:37.859Z,0
2018-01-24T01:37:38.464Z,0
2018-01-24T01:38:39.064Z,0
2018-01-24T01:39:39.664Z,0
2018-01-24T01:40:40.274Z,0
2018-01-24T01:41:40.888Z,0
2018-01-24T01:42:41.485Z,0
2018-01-24T01:43:42.094Z,0
2018-01-24T01:44:42.703Z,0
2018-01-24T01:45:43.303Z,0
2018-01-24T01:46:43.907Z,0
2018-01-24T01:47:44.510Z,0
2018-01-24T01:48:45.157Z,0
2018-01-24T01:49:45.734Z,0
2018-01-24T01:50:46.328Z,0
2018-01-24T01:51:46.930Z,0
2018-01-24T01:52:47.556Z,0
2018-01-24T01:53:48.139Z,0
2018-01-24T01:54:48.742Z,0
2018-01-24T01:55:49.353Z,0
2018-01-24T01:56:49.951Z,0
2018-01-24T01:57:50.548Z,0
2018-01-24T01:58:51.155Z,0
2018-01-24T01:59:51.763Z,0
2018-01-24T02:00:52.368Z,0
2018-01-24T02:01:52.975Z,0
2018-01-24T02:02:53.583Z,0
2018-01-24T02:03:54.191Z,0
2018-01-24T02:04:54.797Z,0
2018-01-24T02:05:55.399Z,0
2018-01-24T02:06:55.996Z,0
2018-01-24T02:07:56.606Z,0
2018-01-24T02:08:57.205Z,0
2018-01-24T02:09:57.806Z,0
2018-01-24T02:10:58.402Z,0
2018-01-24T02:11:59.003Z,0
2018-01-24T02:12:59.611Z,0
2018-01-24T02:14:00.213Z,0
2018-01-24T02:15:00.817Z,0
2018-01-24T02:16:01.421Z,0
2018-01-24T02:17:02.016Z,0
2018-01-24T02:18:02.615Z,0
2018-01-24T02:19:03.213Z,0
2018-01-24T02:20:03.819Z,0
2018-01-24T02:21:04.422Z,0
2018-01-24T02:22:05.075Z,0
2018-01-24T02:23:05.647Z,0
2018-01-24T02:24:06.266Z,0
2018-01-24T02:25:06.866Z,0
2018-01-24T02:26:07.462Z,0
2018-01-24T02:27:08.070Z,0
2018-01-24T02:28:08.675Z,0
2018-01-24T02:29:09.279Z,0
2018-01-24T02:30:09.878Z,0
2018-01-24T02:31:10.482Z,0
2018-01-24T02:32:11.083Z,0
2018-01-24T02:33:11.690Z,0
2018-01-24T02:34:12.278Z,0
2018-01-24T02:35:12.877Z,0
2018-01-24T02:36:13.480Z,0
2018-01-24T02:37:14.079Z,0
2018-01-24T02:38:14.683Z,0
2018-01-24T02:39:15.292Z,0
2018-01-24T02:40:15.902Z,0
2018-01-24T02:41:16.507Z,0
2018-01-24T02:42:17.111Z,0
2018-01-24T02:43:17.724Z,0
2018-01-24T02:44:18.331Z,0
2018-01-24T02:45:18.941Z,0
2018-01-24T02:46:19.540Z,0
2018-01-24T02:47:20.138Z,0
2018-01-24T02:48:20.742Z,0
2018-01-24T02:49:21.350Z,0
2018-01-24T02:50:21.948Z,0
2018-01-24T02:51:22.549Z,0
2018-01-24T02:52:23.155Z,0
2018-01-24T02:53:23.755Z,0
2018-01-24T02:54:24.359Z,0
2018-01-24T02:55:24.968Z,0
2018-01-24T02:56:25.572Z,0
2018-01-24T02:57:26.176Z,0
2018-01-24T02:58:26.784Z,0
2018-01-24T02:59:27.381Z,0
2018-01-24T03:00:27.990Z,0
2018-01-24T03:01:28.599Z,0
2018-01-24T03:02:29.209Z,0
2018-01-24T03:03:29.809Z,0
2018-01-24T03:04:30.397Z,0
2018-01-24T03:05:31.002Z,0
2018-01-24T03:06:31.597Z,0
2018-01-24T03:07:32.197Z,0
2018-01-24T03:08:32.802Z,0
2018-01-24T03:09:33.405Z,0
2018-01-24T03:10:34.018Z,0
2018-01-24T03:11:34.622Z,0
2018-01-24T03:12:35.227Z,0
2018-01-24T03:13:35.838Z,0
2018-01-24T03:14:36.459Z,0
2018-01-24T03:15:37.040Z,0
2018-01-24T03:16:37.645Z,0
2018-01-24T03:17:38.243Z,0
2018-01-24T03:18:38.846Z,0
2018-01-24T03:19:39.451Z,0
2018-01-24T03:20:40.063Z,0
2018-01-24T03:21:40.656Z,0
2018-01-24T03:22:41.247Z,0
2018-01-24T03:23:41.850Z,0
2018-01-24T03:24:42.460Z,0
2018-01-24T03:25:43.053Z,0
2018-01-24T03:26:43.654Z,0
2018-01-24T03:27:44.258Z,0
2018-01-24T03:28:44.848Z,0
2018-01-24T03:29:45.449Z,0
2018-01-24T03:30:46.047Z,0
2018-01-24T03:31:46.668Z,0
2018-01-24T03:32:47.254Z,0
2018-01-24T03:33:47.861Z,0
2018-01-24T03:34:48.462Z,0
2018-01-24T03:35:49.073Z,0
2018-01-24T03:36:49.687Z,0
2018-01-24T03:37:50.296Z,0
2018-01-24T03:38:50.906Z,0
2018-01-24T03:39:51.519Z,0
2018-01-24T03:40:52.122Z,0
2018-01-24T03:41:52.721Z,0
2018-01-24T03:42:53.331Z,0
2018-01-24T03:43:53.929Z,0
2018-01-24T03:44:54.526Z,0
2018-01-24T03:45:55.129Z,0
2018-01-24T03:46:55.729Z,0
2018-01-24T03:47:56.323Z,0
2018-01-24T03:48:56.920Z,0
2018-01-24T03:49:57.518Z,0
2018-01-24T03:50:58.129Z,0
2018-01-24T03:51:58.752Z,0
2018-01-24T03:52:59.347Z,0
2018-01-24T03:53:59.942Z,0
2018-01-24T03:55:00.544Z,0
2018-01-24T03:56:01.149Z,0
2018-01-24T03:57:01.745Z,0
2018-01-24T03:58:02.361Z,0
2018-01-24T03:59:02.973Z,0
2018-01-24T04:00:03.584Z,0
2018-01-24T04:01:04.180Z,0
2018-01-24T04:02:04.785Z,0
2018-01-24T04:03:05.403Z,0
2018-01-24T04:04:05.990Z,0
2018-01-24T04:05:06.588Z,0
2018-01-24T04:06:07.180Z,0
2018-01-24T04:07:07.780Z,0
2018-01-24T04:08:08.385Z,0
2018-01-24T04:09:08.989Z,0
2018-01-24T04:10:09.589Z,0
2018-01-24T04:11:10.185Z,0
2018-01-24T04:12:10.790Z,0
2018-01-24T04:13:11.395Z,0
2018-01-24T04:14:12.007Z,0
2018-01-24T04:15:12.610Z,0
2018-01-24T04:16:13.231Z,0
2018-01-24T04:17:13.835Z,0
2018-01-24T04:18:14.435Z,0
2018-01-24T04:19:15.040Z,0
2018-01-24T04:20:15.638Z,0
2018-01-24T04:21:16.250Z,0
2018-01-24T04:22:16.865Z,0
2018-01-24T04:23:17.457Z,0
2018-01-24T04:24:18.057Z,0
2018-01-24T04:25:18.656Z,0
2018-01-24T04:26:19.257Z,0
2018-01-24T04:27:19.858Z,0
2018-01-24T04:28:20.453Z,0
2018-01-24T04:29:21.054Z,0
2018-01-24T04:30:21.656Z,0
2018-01-24T04:31:22.260Z,0
2018-01-24T04:32:22.855Z,0
2018-01-24T04:33:23.456Z,0
2018-01-24T04:34:24.055Z,0
2018-01-24T04:35:24.658Z,0
2018-01-24T04:36:25.262Z,0
2018-01-24T04:37:25.867Z,0
2018-01-24T04:38:26.474Z,0
2018-01-24T04:39:27.072Z,0
2018-01-24T04:40:27.674Z,0
2018-01-24T04:41:28.282Z,0
2018-01-24T04:42:28.899Z,0
2018-01-24T04:43:29.493Z,0
2018-01-24T04:44:30.089Z,0
2018-01-24T04:45:30.688Z,0
2018-01-24T04:46:31.303Z,0
2018-01-24T04:47:31.914Z,0
2018-01-24T04:48:32.538Z,0
2018-01-24T04:49:33.127Z,0
2018-01-24T04:50:33.720Z,0
2018-01-24T04:51:34.332Z,0
2018-01-24T04:52:34.942Z,0
2018-01-24T04:53:35.543Z,0
2018-01-24T04:54:36.157Z,0
2018-01-24T04:55:36.772Z,0
2018-01-24T04:56:37.378Z,0
2018-01-24T04:57:37.974Z,0
2018-01-24T04:58:38.579Z,0
2018-01-24T04:59:39.184Z,0
2018-01-24T05:00:39.780Z,0
2018-01-24T05:01:40.380Z,0
2018-01-24T05:02:40.985Z,0
2018-01-24T05:03:41.592Z,0
2018-01-24T05:04:42.185Z,0
2018-01-24T05:05:42.791Z,0
2018-01-24T05:06:43.402Z,0
2018-01-24T05:07:44.018Z,0
2018-01-24T05:08:44.627Z,0
2018-01-24T05:09:45.233Z,0
2018-01-24T05:10:45.838Z,0
2018-01-24T05:11:46.448Z,0
2018-01-24T05:12:47.058Z,0
2018-01-24T05:13:47.657Z,0
2018-01-24T05:14:48.251Z,0
2018-01-24T05:15:48.844Z,0
2018-01-24T05:16:49.434Z,0
2018-01-24T05:17:50.038Z,0
2018-01-24T05:18:50.626Z,0
2018-01-24T05:19:51.221Z,0
2018-01-24T05:20:51.826Z,0
2018-01-24T05:21:52.436Z,0
2018-01-24T05:22:53.049Z,0
2018-01-24T05:23:53.657Z,0
2018-01-24T05:24:54.262Z,0
2018-01-24T05:25:54.858Z,0
2018-01-24T05:26:55.451Z,0
2018-01-24T05:27:56.053Z,0
2018-01-24T05:28:56.665Z,0
2018-01-24T05:29:57.274Z,0
2018-01-24T05:30:57.884Z,0
2018-01-24T05:31:58.482Z,0
2018-01-24T05:32:59.096Z,0
2018-01-24T05:33:59.693Z,0
2018-01-24T05:35:00.302Z,0
2018-01-24T05:36:00.916Z,0
2018-01-24T05:37:01.522Z,0
2018-01-24T05:38:02.121Z,0
2018-01-24T05:39:02.733Z,0
2018-01-24T05:40:03.332Z,0
2018-01-24T05:41:03.950Z,0
2018-01-24T05:42:04.559Z,0
2018-01-24T05:43:05.172Z,0
2018-01-24T05:44:05.778Z,0
2018-01-24T05:45:06.398Z,0
2018-01-24T05:46:06.996Z,0
2018-01-24T05:47:07.594Z,0
2018-01-24T05:48:08.203Z,0
2018-01-24T05:49:08.787Z,0
2018-01-24T05:50:09.374Z,0
2018-01-24T05:51:09.987Z,0
2018-01-24T05:52:10.569Z,0
2018-01-24T05:53:11.187Z,0
2018-01-24T05:54:11.773Z,0
2018-01-24T05:55:12.361Z,0
2018-01-24T05:56:12.964Z,0
2018-01-24T05:57:13.569Z,0
2018-01-24T05:58:14.186Z,0
2018-01-24T05:59:14.788Z,0
2018-01-24T06:00:15.390Z,0
2018-01-24T06:01:15.982Z,0
2018-01-24T06:02:16.585Z,0
2018-01-24T06:03:17.182Z,0
2018-01-24T06:04:17.782Z,0
2018-01-24T06:05:18.388Z,0
2018-01-24T06:06:19.000Z,0
2018-01-24T06:07:19.593Z,0
2018-01-24T06:08:20.193Z,0
2018-01-24T06:09:20.799Z,0
2018-01-24T06:10:21.404Z,0
2018-01-24T06:11:22.015Z,0
2018-01-24T06:12:22.635Z,0
2018-01-24T06:13:23.241Z,0
2018-01-24T06:14:23.835Z,0
2018-01-24T06:15:24.436Z,0
2018-01-24T06:16:25.035Z,0
2018-01-24T06:17:25.643Z,0
2018-01-24T06:18:26.258Z,0
2018-01-24T06:19:26.869Z,0
2018-01-24T06:20:27.452Z,0
2018-01-24T06:21:28.054Z,0
2018-01-24T06:22:28.658Z,0
2018-01-24T06:23:29.269Z,0
2018-01-24T06:24:29.882Z,0
2018-01-24T06:25:30.493Z,0
2018-01-24T06:26:31.095Z,0
2018-01-24T06:27:31.690Z,0
2018-01-24T06:28:32.294Z,0
2018-01-24T06:29:32.895Z,0
2018-01-24T06:30:33.503Z,0
2018-01-24T06:31:34.115Z,0
2018-01-24T06:32:34.716Z,0
2018-01-24T06:33:35.314Z,0
2018-01-24T06:34:35.912Z,0
2018-01-24T06:35:36.513Z,0
2018-01-24T06:36:37.134Z,0
2018-01-24T06:37:37.740Z,0
2018-01-24T06:38:38.355Z,0
2018-01-24T06:39:38.971Z,0
2018-01-24T06:40:39.563Z,0
2018-01-24T06:41:40.173Z,0
2018-01-24T06:42:40.792Z,0
2018-01-24T06:43:41.396Z,0
2018-01-24T06:44:42.007Z,0
2018-01-24T06:45:42.605Z,0
2018-01-24T06:46:43.199Z,0
2018-01-24T06:47:43.862Z,0
2018-01-24T06:48:44.425Z,0
2018-01-24T06:49:45.028Z,0
2018-01-24T06:50:45.636Z,0
2018-01-24T06:51:46.239Z,0
2018-01-24T06:52:46.837Z,0
2018-01-24T06:53:47.435Z,0
2018-01-24T06:54:48.030Z,0
2018-01-24T06:55:48.629Z,0
2018-01-24T06:56:49.233Z,0
2018-01-24T06:57:49.852Z,0
2018-01-24T06:58:50.462Z,0
2018-01-24T06:59:51.053Z,0
2018-01-24T07:00:51.661Z,0
2018-01-24T07:01:52.283Z,0
2018-01-24T07:02:52.891Z,0
2018-01-24T07:03:53.489Z,0
2018-01-24T07:04:54.092Z,0
2018-01-24T07:05:54.683Z,0
2018-01-24T07:06:55.286Z,0
2018-01-24T07:07:55.883Z,0
2018-01-24T07:08:56.479Z,0
2018-01-24T07:09:57.083Z,0
2018-01-24T07:10:57.700Z,0
2018-01-24T07:11:58.311Z,0
2018-01-24T07:12:58.912Z,0
2018-01-24T07:13:59.514Z,0
2018-01-24T07:15:00.130Z,0
2018-01-24T07:16:01.625Z,0
2018-01-24T07:17:02.227Z,5
2018-01-24T07:18:02.829Z,5
2018-01-24T07:19:03.434Z,5
2018-01-24T07:20:04.042Z,5
2018-01-24T07:21:04.656Z,5
2018-01-24T07:22:05.251Z,5
2018-01-24T07:23:05.852Z,5
2018-01-24T07:24:06.467Z,5
2018-01-24T07:25:07.056Z,5
2018-01-24T07:26:07.682Z,10
2018-01-24T07:27:08.287Z,10
2018-01-24T07:28:08.893Z,15
2018-01-24T07:29:09.490Z,15
2018-01-24T07:30:10.092Z,15
2018-01-24T07:31:10.704Z,15
2018-01-24T07:32:11.303Z,20
2018-01-24T07:33:11.908Z,20
2018-01-24T07:34:12.508Z,20
2018-01-24T07:35:13.115Z,25
2018-01-24T07:36:13.720Z,25
2018-01-24T07:37:14.340Z,30
2018-01-24T07:38:14.958Z,35
2018-01-24T07:39:15.580Z,35
2018-01-24T07:40:16.169Z,40
2018-01-24T07:41:16.766Z,40
2018-01-24T07:42:17.375Z,45
2018-01-24T07:43:17.987Z,45
2018-01-24T07:44:18.600Z,45
2018-01-24T07:45:19.204Z,45
2018-01-24T07:46:19.801Z,50
2018-01-24T07:47:20.409Z,55
2018-01-24T07:48:21.006Z,60
2018-01-24T07:49:21.619Z,65
2018-01-24T07:50:22.244Z,70
2018-01-24T07:51:22.841Z,60
2018-01-24T07:52:23.445Z,60
2018-01-24T07:53:24.074Z,60
2018-01-24T07:54:24.666Z,60
2018-01-24T07:55:25.264Z,65
2018-01-24T07:56:25.871Z,70
2018-01-24T07:57:26.468Z,70
2018-01-24T07:58:27.079Z,65
2018-01-24T07:59:27.681Z,65
2018-01-24T08:00:28.297Z,65
2018-01-24T08:01:28.918Z,70
2018-01-24T08:02:29.529Z,75
2018-01-24T08:03:30.139Z,85
2018-01-24T08:04:30.748Z,85
2018-01-24T08:05:31.361Z,80
2018-01-24T08:06:31.989Z,90
2018-01-24T08:07:32.605Z,90
2018-01-24T08:08:33.212Z,90
2018-01-24T08:09:33.832Z,95
2018-01-24T08:10:34.438Z,105
2018-01-24T08:11:35.048Z,110
2018-01-24T08:12:35.694Z,115
2018-01-24T08:13:36.304Z,115
2018-01-24T08:14:36.917Z,115
2018-01-24T08:15:37.525Z,115
2018-01-24T08:16:38.133Z,110
2018-01-24T08:17:38.739Z,110
2018-01-24T08:18:39.347Z,115
2018-01-24T08:19:39.952Z,115
2018-01-24T08:20:40.559Z,115
2018-01-24T08:21:41.163Z,120
2018-01-24T08:22:41.769Z,135
2018-01-24T08:23:42.389Z,160
2018-01-24T08:24:43.006Z,170
2018-01-24T08:25:43.654Z,185
2018-01-24T08:26:44.238Z,185
2018-01-24T08:27:44.847Z,185
2018-01-24T08:28:45.443Z,195
2018-01-24T08:29:46.052Z,205
2018-01-24T08:30:46.666Z,210
2018-01-24T08:31:47.264Z,210
2018-01-24T08:32:47.869Z,215
2018-01-24T08:33:48.489Z,220
2018-01-24T08:34:49.107Z,230
2018-01-24T08:35:49.735Z,245
2018-01-24T08:36:51.342Z,245
2018-01-24T08:37:51.963Z,240
2018-01-24T08:38:52.578Z,230
2018-01-24T08:39:53.201Z,225
2018-01-24T08:40:53.818Z,220
2018-01-24T08:41:54.445Z,235
2018-01-24T08:42:55.059Z,245
2018-01-24T08:43:55.716Z,255
2018-01-24T08:44:56.312Z,250
2018-01-24T08:45:56.951Z,260
2018-01-24T08:46:57.547Z,270
2018-01-24T08:47:58.156Z,260
2018-01-24T08:48:58.793Z,270
2018-01-24T08:49:59.471Z,280
2018-01-24T08:51:00.134Z,280
2018-01-24T08:52:00.895Z,275
2018-01-24T08:53:01.545Z,290
2018-01-24T08:54:02.155Z,305
2018-01-24T08:55:02.781Z,305
2018-01-24T08:56:03.451Z,315
2018-01-24T08:57:04.062Z,330
2018-01-24T08:58:04.681Z,370
2018-01-24T08:59:05.282Z,365
2018-01-24T09:00:05.913Z,340
2018-01-24T09:01:06.527Z,340
2018-01-24T09:02:07.139Z,360
2018-01-24T09:03:07.762Z,350
2018-01-24T09:04:08.405Z,365
2018-01-24T09:05:09.033Z,380
2018-01-24T09:06:09.640Z,375
2018-01-24T09:07:10.267Z,390
2018-01-24T09:08:11.069Z,415
2018-01-24T09:09:11.699Z,365
2018-01-24T09:10:12.292Z,365
2018-01-24T09:11:12.908Z,370
2018-01-24T09:12:13.556Z,350
2018-01-24T09:13:14.151Z,375
2018-01-24T09:14:14.820Z,375
2018-01-24T09:15:15.454Z,395
2018-01-24T09:16:16.067Z,355
2018-01-24T09:17:16.691Z,345
2018-01-24T09:18:17.340Z,350
2018-01-24T09:19:17.937Z,350
2018-01-24T09:20:18.601Z,345
2018-01-24T09:21:19.171Z,350
2018-01-24T09:22:19.793Z,355
2018-01-24T09:23:20.400Z,360
2018-01-24T09:24:21.027Z,360
2018-01-24T09:25:21.641Z,365
2018-01-24T09:26:22.255Z,365
2018-01-24T09:27:22.865Z,365
2018-01-24T09:28:23.493Z,370
2018-01-24T09:29:24.124Z,375
2018-01-24T09:30:24.739Z,380
2018-01-24T09:31:25.358Z,380
2018-01-24T09:32:25.982Z,385
2018-01-24T09:33:26.732Z,385
2018-01-24T09:34:27.348Z,390
2018-01-24T09:35:28.011Z,390
2018-01-24T09:36:28.592Z,380
2018-01-24T09:37:29.243Z,385
2018-01-24T09:38:29.849Z,385
2018-01-24T09:39:30.682Z,390
2018-01-24T09:40:31.307Z,385
2018-01-24T09:41:31.948Z,380
2018-01-24T09:42:32.588Z,395
2018-01-24T09:43:33.219Z,395
2018-01-24T09:44:33.839Z,385
2018-01-24T09:45:34.763Z,385
2018-01-24T09:46:35.283Z,400
2018-01-24T09:47:35.918Z,400
2018-01-24T09:48:36.548Z,400
2018-01-24T09:49:37.186Z,415
2018-01-24T09:50:38.009Z,400
2018-01-24T09:51:38.634Z,405
2018-01-24T09:52:39.243Z,405
2018-01-24T09:53:39.881Z,400
2018-01-24T09:54:40.514Z,410
2018-01-24T09:55:41.151Z,410
2018-01-24T09:56:41.775Z,425
2018-01-24T09:57:42.386Z,430
2018-01-24T09:58:43.134Z,430
2018-01-24T09:59:43.763Z,430
2018-01-24T10:00:44.389Z,435
2018-01-24T10:01:45.019Z,435
2018-01-24T10:02:45.636Z,430
2018-01-24T10:03:46.268Z,435
2018-01-24T10:04:46.896Z,440
2018-01-24T10:05:47.506Z,445
2018-01-24T10:06:48.129Z,455
2018-01-24T10:07:49.337Z,470
2018-01-24T10:08:49.973Z,465
2018-01-24T10:09:50.604Z,465
2018-01-24T10:10:51.226Z,460
2018-01-24T10:11:51.862Z,465
2018-01-24T10:12:52.485Z,465
2018-01-24T10:13:53.109Z,480
2018-01-24T10:14:53.746Z,455
2018-01-24T10:15:54.364Z,475
2018-01-24T10:16:54.996Z,495
2018-01-24T10:17:55.627Z,460
2018-01-24T10:18:56.250Z,450
2018-01-24T10:19:56.993Z,415
2018-01-24T10:20:57.621Z,420
2018-01-24T10:21:58.249Z,440
2018-01-24T10:22:58.881Z,460
2018-01-24T10:23:59.509Z,470
2018-01-24T10:25:00.139Z,450
2018-01-24T10:26:00.772Z,445
2018-01-24T10:27:01.532Z,455
2018-01-24T10:28:02.153Z,460
2018-01-24T10:29:02.790Z,420
2018-01-24T10:30:03.455Z,430
2018-01-24T10:31:04.066Z,475
2018-01-24T10:32:04.701Z,475
2018-01-24T10:33:05.330Z,480
2018-01-24T10:34:05.997Z,490
2018-01-24T10:35:06.627Z,485
2018-01-24T10:36:07.261Z,515
2018-01-24T10:37:07.880Z,520
2018-01-24T10:38:08.519Z,500
2018-01-24T10:39:09.120Z,525
2018-01-24T10:40:09.751Z,530
2018-01-24T10:41:10.373Z,550
2018-01-24T10:42:11.000Z,580
2018-01-24T10:43:11.629Z,580
2018-01-24T10:44:12.262Z,565
2018-01-24T10:45:12.896Z,565
2018-01-24T10:46:13.651Z,570
2018-01-24T10:47:14.298Z,545
2018-01-24T10:48:14.923Z,590
2018-01-24T10:49:15.549Z,575
2018-01-24T10:50:16.173Z,550
2018-01-24T10:51:16.798Z,525
2018-01-24T10:52:17.433Z,535
2018-01-24T10:53:18.065Z,590
2018-01-24T10:54:18.685Z,590
2018-01-24T10:55:19.322Z,595
2018-01-24T10:56:19.935Z,610
2018-01-24T10:57:20.569Z,615
2018-01-24T10:58:21.194Z,630
2018-01-24T10:59:21.824Z,645
2018-01-24T11:00:22.451Z,615
2018-01-24T11:01:23.080Z,605
2018-01-24T11:02:23.720Z,610
2018-01-24T11:03:24.350Z,635
2018-01-24T11:04:24.993Z,625
2018-01-24T11:05:25.629Z,645
2018-01-24T11:06:26.254Z,675
2018-01-24T11:07:26.890Z,670
2018-01-24T11:08:28.510Z,735
2018-01-24T11:09:29.375Z,750
2018-01-24T11:10:29.992Z,780
2018-01-24T11:11:30.624Z,735
2018-01-24T11:12:31.260Z,695
2018-01-24T11:13:31.875Z,715
2018-01-24T11:14:32.508Z,750
2018-01-24T11:15:33.137Z,730
2018-01-24T11:16:33.776Z,710
2018-01-24T11:17:34.393Z,640
2018-01-24T11:18:35.020Z,620
2018-01-24T11:19:35.874Z,625
2018-01-24T11:20:36.491Z,665
2018-01-24T11:21:37.130Z,735
2018-01-24T11:22:38.008Z,705
2018-01-24T11:23:38.637Z,690
2018-01-24T11:24:39.252Z,700
2018-01-24T11:25:39.880Z,730
2018-01-24T11:26:40.517Z,760
2018-01-24T11:27:41.155Z,735
2018-01-24T11:28:41.973Z,800
2018-01-24T11:29:42.586Z,720
2018-01-24T11:30:43.417Z,760
2018-01-24T11:31:44.050Z,680
2018-01-24T11:32:44.670Z,740
2018-01-24T11:33:45.292Z,905
2018-01-24T11:34:45.951Z,790
2018-01-24T11:35:46.581Z,725
2018-01-24T11:36:47.338Z,800
2018-01-24T11:37:47.973Z,820
2018-01-24T11:38:48.591Z,825
2018-01-24T11:39:49.423Z,770
2018-01-24T11:40:50.071Z,760
2018-01-24T11:41:50.693Z,645
2018-01-24T11:42:51.337Z,625
2018-01-24T11:43:52.079Z,585
2018-01-24T11:44:52.686Z,580
2018-01-24T11:45:53.326Z,650
2018-01-24T11:46:53.989Z,735
2018-01-24T11:47:54.621Z,655
2018-01-24T11:48:55.251Z,630
2018-01-24T11:49:55.893Z,695
2018-01-24T11:50:56.528Z,590
2018-01-24T11:51:57.206Z,535
2018-01-24T11:52:57.810Z,550
2018-01-24T11:53:58.444Z,520
2018-01-24T11:54:59.079Z,445
2018-01-24T11:55:59.728Z,405
2018-01-24T11:57:00.343Z,410
2018-01-24T11:58:00.966Z,420
2018-01-24T11:59:01.593Z,490
2018-01-24T12:00:02.219Z,595
2018-01-24T12:01:03.422Z,760
2018-01-24T12:02:04.062Z,800
2018-01-24T12:03:04.683Z,715
2018-01-24T12:04:05.319Z,765
2018-01-24T12:05:05.941Z,780
2018-01-24T12:06:06.556Z,740
2018-01-24T12:07:07.162Z,710
2018-01-24T12:08:07.774Z,710
2018-01-24T12:09:08.409Z,645
2018-01-24T12:10:09.048Z,650
2018-01-24T12:11:09.683Z,640
2018-01-24T12:12:10.327Z,595
2018-01-24T12:13:10.941Z,525
2018-01-24T12:14:11.566Z,390
2018-01-24T12:15:12.205Z,420
2018-01-24T12:16:12.849Z,455
2018-01-24T12:17:13.488Z,510
2018-01-24T12:18:14.099Z,405
2018-01-24T12:19:14.722Z,355
2018-01-24T12:20:15.348Z,340
2018-01-24T12:21:16.184Z,290
2018-01-24T12:22:16.809Z,300
2018-01-24T12:23:17.422Z,365
2018-01-24T12:24:18.044Z,365
2018-01-24T12:25:18.673Z,400
2018-01-24T12:26:19.309Z,305
2018-01-24T12:27:19.928Z,285
2018-01-24T12:28:20.537Z,320
2018-01-24T12:29:21.161Z,290
2018-01-24T12:30:21.787Z,250
2018-01-24T12:31:22.408Z,270
2018-01-24T12:32:23.213Z,275
2018-01-24T12:33:23.829Z,230
2018-01-24T12:34:24.444Z,245
2018-01-24T12:35:25.128Z,240
2018-01-24T12:36:25.715Z,225
2018-01-24T12:37:26.336Z,290
2018-01-24T12:38:26.959Z,320
2018-01-24T12:39:27.594Z,300
2018-01-24T12:40:28.204Z,260
2018-01-24T12:41:28.813Z,255
2018-01-24T12:42:29.435Z,275
2018-01-24T12:43:30.040Z,260
2018-01-24T12:44:30.671Z,235
2018-01-24T12:45:31.274Z,280
2018-01-24T12:46:31.969Z,460
2018-01-24T12:47:32.536Z,555
2018-01-24T12:48:33.201Z,495
2018-01-24T12:49:33.821Z,360
2018-01-24T12:50:34.466Z,355
2018-01-24T12:51:35.094Z,330
2018-01-24T12:52:35.721Z,280
2018-01-24T12:53:36.331Z,320
2018-01-24T12:54:36.966Z,385
2018-01-24T12:55:37.580Z,375
2018-01-24T12:56:38.211Z,360
2018-01-24T12:57:38.829Z,375
2018-01-24T12:58:39.480Z,415
2018-01-24T12:59:40.097Z,470
2018-01-24T13:00:40.717Z,540
2018-01-24T13:01:41.341Z,500
2018-01-24T13:02:41.958Z,620
2018-01-24T13:03:42.586Z,495
2018-01-24T13:04:43.202Z,435
2018-01-24T13:05:43.842Z,420
2018-01-24T13:06:44.598Z,435
2018-01-24T13:07:45.226Z,445
2018-01-24T13:08:45.875Z,400
2018-01-24T13:09:46.484Z,365
2018-01-24T13:10:47.116Z,380
2018-01-24T13:11:47.747Z,325
2018-01-24T13:12:48.365Z,275
2018-01-24T13:13:48.976Z,260
2018-01-24T13:14:49.601Z,285
2018-01-24T13:15:50.210Z,290
2018-01-24T13:16:50.837Z,290
2018-01-24T13:17:51.463Z,275
2018-01-24T13:18:52.077Z,245
2018-01-24T13:19:52.700Z,230
2018-01-24T13:20:53.319Z,245
2018-01-24T13:21:53.976Z,220
2018-01-24T13:22:54.594Z,240
2018-01-24T13:23:55.222Z,225
2018-01-24T13:24:55.835Z,270
2018-01-24T13:25:56.452Z,300
2018-01-24T13:26:57.085Z,295
2018-01-24T13:27:57.707Z,270
2018-01-24T13:28:58.322Z,295
2018-01-24T13:29:58.944Z,325
2018-01-24T13:30:59.573Z,310
2018-01-24T13:32:00.187Z,295
2018-01-24T13:33:00.810Z,295
2018-01-24T13:34:01.434Z,280
2018-01-24T13:35:02.050Z,235
2018-01-24T13:36:02.692Z,200
2018-01-24T13:37:03.353Z,220
2018-01-24T13:38:03.929Z,200
2018-01-24T13:39:04.564Z,200
2018-01-24T13:40:05.197Z,215
2018-01-24T13:41:05.832Z,180
2018-01-24T13:42:06.459Z,185
2018-01-24T13:43:07.080Z,180
2018-01-24T13:44:07.737Z,165
2018-01-24T13:45:08.570Z,180
2018-01-24T13:46:09.184Z,190
2018-01-24T13:47:10.005Z,180
2018-01-24T13:48:10.631Z,150
2018-01-24T13:49:11.236Z,130
2018-01-24T13:50:11.847Z,150
2018-01-24T13:51:12.469Z,135
2018-01-24T13:52:13.107Z,115
2018-01-24T13:53:13.717Z,130
2018-01-24T13:54:14.334Z,130
2018-01-24T13:55:14.951Z,120
2018-01-24T13:56:15.580Z,120
2018-01-24T13:57:16.188Z,135
2018-01-24T13:58:16.805Z,135
2018-01-24T13:59:17.440Z,145
2018-01-24T14:00:18.033Z,120
2018-01-24T14:01:18.656Z,105
2018-01-24T14:02:19.265Z,100
2018-01-24T14:03:19.891Z,120
2018-01-24T14:04:20.513Z,130
2018-01-24T14:05:21.175Z,105
2018-01-24T14:06:21.752Z,110
2018-01-24T14:07:22.367Z,105
2018-01-24T14:08:22.963Z,100
2018-01-24T14:09:23.573Z,95
2018-01-24T14:10:24.185Z,100
2018-01-24T14:11:24.805Z,110
2018-01-24T14:12:25.410Z,120
2018-01-24T14:13:26.028Z,105
2018-01-24T14:14:26.636Z,105
2018-01-24T14:15:27.247Z,120
2018-01-24T14:16:27.864Z,120
2018-01-24T14:17:28.473Z,145
2018-01-24T14:18:29.074Z,145
2018-01-24T14:19:29.685Z,125
2018-01-24T14:20:30.308Z,120
2018-01-24T14:21:30.941Z,120
2018-01-24T14:22:31.565Z,140
2018-01-24T14:23:32.186Z,145
2018-01-24T14:24:32.791Z,125
2018-01-24T14:25:33.402Z,115
2018-01-24T14:26:34.006Z,105
2018-01-24T14:27:34.612Z,110